sensor_id;sensor_type;location;lat;lon;timestamp;temperature;humidity
78902;DHT22;70441;44.758;37.686;2024-03-23T00:51:52;5.90;81.76
78902;DHT22;70441;44.758;37.686;2024-03-23T00:52:54;5.91;81.81
78902;DHT22;70441;44.758;37.686;2024-03-23T00:53:55;5.91;81.86
78902;DHT22;70441;44.758;37.686;2024-03-23T00:54:57;5.93;81.75
78902;DHT22;70441;44.758;37.686;2024-03-23T00:55:58;5.93;81.81
78902;DHT22;70441;44.758;37.686;2024-03-23T00:57:00;5.91;81.85
78902;DHT22;70441;44.758;37.686;2024-03-23T00:58:02;5.91;81.96
78902;DHT22;70441;44.758;37.686;2024-03-23T00:59:04;5.91;81.78
78902;DHT22;70441;44.758;37.686;2024-03-23T01:00:06;5.90;81.83
78902;DHT22;70441;44.758;37.686;2024-03-23T01:01:07;5.90;81.81
78902;DHT22;70441;44.758;37.686;2024-03-23T01:02:09;5.89;81.71
78902;DHT22;70441;44.758;37.686;2024-03-23T01:03:10;5.87;81.82
78902;DHT22;70441;44.758;37.686;2024-03-23T01:04:12;5.90;81.90
78902;DHT22;70441;44.758;37.686;2024-03-23T01:05:13;5.89;81.86
78902;DHT22;70441;44.758;37.686;2024-03-23T01:06:14;5.89;81.91
78902;DHT22;70441;44.758;37.686;2024-03-23T01:07:16;5.89;81.86
78902;DHT22;70441;44.758;37.686;2024-03-23T01:08:17;5.87;81.68
78902;DHT22;70441;44.758;37.686;2024-03-23T01:09:19;5.85;81.71
78902;DHT22;70441;44.758;37.686;2024-03-23T01:10:20;5.83;81.78
78902;DHT22;70441;44.758;37.686;2024-03-23T01:11:21;5.87;81.78
78902;DHT22;70441;44.758;37.686;2024-03-23T01:12:23;5.87;81.83
78902;DHT22;70441;44.758;37.686;2024-03-23T01:13:24;5.85;81.84
78902;DHT22;70441;44.758;37.686;2024-03-23T01:14:26;5.83;81.85
78902;DHT22;70441;44.758;37.686;2024-03-23T01:15:27;5.81;81.86
78902;DHT22;70441;44.758;37.686;2024-03-23T01:16:29;5.79;81.96
78902;DHT22;70441;44.758;37.686;2024-03-23T01:17:30;5.77;81.86
78902;DHT22;70441;44.758;37.686;2024-03-23T01:18:31;5.76;81.77
78902;DHT22;70441;44.758;37.686;2024-03-23T01:19:34;5.74;81.87
78902;DHT22;70441;44.758;37.686;2024-03-23T01:20:35;5.72;81.98
78902;DHT22;70441;44.758;37.686;2024-03-23T01:21:36;5.70;82.00
78902;DHT22;70441;44.758;37.686;2024-03-23T01:22:38;5.70;82.13
78902;DHT22;70441;44.758;37.686;2024-03-23T01:23:39;5.69;82.19
78902;DHT22;70441;44.758;37.686;2024-03-23T01:24:41;5.70;82.01
78902;DHT22;70441;44.758;37.686;2024-03-23T01:25:52;5.69;81.94
78902;DHT22;70441;44.758;37.686;2024-03-23T01:26:54;5.67;82.01
78902;DHT22;70441;44.758;37.686;2024-03-23T01:28:01;5.65;82.00
78902;DHT22;70441;44.758;37.686;2024-03-23T01:29:02;5.62;82.16
78902;DHT22;70441;44.758;37.686;2024-03-23T01:30:04;5.65;82.24
78902;DHT22;70441;44.758;37.686;2024-03-23T01:31:05;5.63;82.27
78902;DHT22;70441;44.758;37.686;2024-03-23T01:32:07;5.65;82.29
78902;DHT22;70441;44.758;37.686;2024-03-23T01:33:08;5.63;82.24
78902;DHT22;70441;44.758;37.686;2024-03-23T01:34:09;5.65;82.13
78902;DHT22;70441;44.758;37.686;2024-03-23T01:35:11;5.67;82.19
78902;DHT22;70441;44.758;37.686;2024-03-23T01:36:12;5.67;82.23
78902;DHT22;70441;44.758;37.686;2024-03-23T01:37:14;5.66;82.31
78902;DHT22;70441;44.758;37.686;2024-03-23T01:38:15;5.66;82.16
78902;DHT22;70441;44.758;37.686;2024-03-23T01:39:17;5.70;82.15
78902;DHT22;70441;44.758;37.686;2024-03-23T01:40:19;5.70;82.09
78902;DHT22;70441;44.758;37.686;2024-03-23T01:41:21;5.67;82.00
78902;DHT22;70441;44.758;37.686;2024-03-23T01:42:22;5.67;82.03
78902;DHT22;70441;44.758;37.686;2024-03-23T01:43:24;5.65;82.15
78902;DHT22;70441;44.758;37.686;2024-03-23T01:44:26;5.67;82.20
78902;DHT22;70441;44.758;37.686;2024-03-23T01:45:27;5.65;82.26
78902;DHT22;70441;44.758;37.686;2024-03-23T01:46:29;5.67;82.19
78902;DHT22;70441;44.758;37.686;2024-03-23T01:47:31;5.67;82.14
78902;DHT22;70441;44.758;37.686;2024-03-23T01:48:33;5.69;82.05
78902;DHT22;70441;44.758;37.686;2024-03-23T01:49:34;5.67;82.18
78902;DHT22;70441;44.758;37.686;2024-03-23T01:50:36;5.66;82.40
78902;DHT22;70441;44.758;37.686;2024-03-23T01:51:38;5.70;82.48
78902;DHT22;70441;44.758;37.686;2024-03-23T01:52:40;5.70;82.46
78902;DHT22;70441;44.758;37.686;2024-03-23T01:53:41;5.69;82.40
78902;DHT22;70441;44.758;37.686;2024-03-23T01:54:43;5.74;82.49
78902;DHT22;70441;44.758;37.686;2024-03-23T01:55:45;5.72;82.42
78902;DHT22;70441;44.758;37.686;2024-03-23T01:56:47;5.74;82.36
78902;DHT22;70441;44.758;37.686;2024-03-23T01:57:50;5.72;82.43
78902;DHT22;70441;44.758;37.686;2024-03-23T01:58:52;5.70;82.31
78902;DHT22;70441;44.758;37.686;2024-03-23T01:59:54;5.69;82.48
78902;DHT22;70441;44.758;37.686;2024-03-23T02:01:01;5.72;82.64
78902;DHT22;70441;44.758;37.686;2024-03-23T02:02:03;5.67;82.37
78902;DHT22;70441;44.758;37.686;2024-03-23T02:03:27;5.66;82.50
78902;DHT22;70441;44.758;37.686;2024-03-23T02:04:29;5.62;82.37
78902;DHT22;70441;44.758;37.686;2024-03-23T02:05:31;5.60;82.69
78902;DHT22;70441;44.758;37.686;2024-03-23T02:06:33;5.63;82.89
78902;DHT22;70441;44.758;37.686;2024-03-23T02:07:34;5.63;82.78
78902;DHT22;70441;44.758;37.686;2024-03-23T02:08:36;5.63;82.85
78902;DHT22;70441;44.758;37.686;2024-03-23T02:09:38;5.66;82.90
78902;DHT22;70441;44.758;37.686;2024-03-23T02:10:39;5.66;82.83
78902;DHT22;70441;44.758;37.686;2024-03-23T02:11:41;5.66;82.68
78902;DHT22;70441;44.758;37.686;2024-03-23T02:12:43;5.56;82.39
78902;DHT22;70441;44.758;37.686;2024-03-23T02:13:45;5.51;82.78
78902;DHT22;70441;44.758;37.686;2024-03-23T02:14:46;5.48;83.07
78902;DHT22;70441;44.758;37.686;2024-03-23T02:15:48;5.49;83.48
78902;DHT22;70441;44.758;37.686;2024-03-23T02:16:50;5.49;83.49
78902;DHT22;70441;44.758;37.686;2024-03-23T02:17:52;5.52;83.44
78902;DHT22;70441;44.758;37.686;2024-03-23T02:18:53;5.55;83.45
78902;DHT22;70441;44.758;37.686;2024-03-23T02:19:55;5.62;83.54
78902;DHT22;70441;44.758;37.686;2024-03-23T02:20:57;5.62;83.40
78902;DHT22;70441;44.758;37.686;2024-03-23T02:21:58;5.65;83.24
78902;DHT22;70441;44.758;37.686;2024-03-23T02:23:00;5.65;83.07
78902;DHT22;70441;44.758;37.686;2024-03-23T02:24:02;5.62;82.75
78902;DHT22;70441;44.758;37.686;2024-03-23T02:25:04;5.60;83.05
78902;DHT22;70441;44.758;37.686;2024-03-23T02:26:06;5.63;83.10
78902;DHT22;70441;44.758;37.686;2024-03-23T02:27:08;5.59;82.84
78902;DHT22;70441;44.758;37.686;2024-03-23T02:28:10;5.56;83.00
78902;DHT22;70441;44.758;37.686;2024-03-23T02:29:12;5.58;83.03
78902;DHT22;70441;44.758;37.686;2024-03-23T02:30:14;5.58;82.91
78902;DHT22;70441;44.758;37.686;2024-03-23T02:31:15;5.62;82.97
78902;DHT22;70441;44.758;37.686;2024-03-23T02:32:17;5.65;82.86
78902;DHT22;70441;44.758;37.686;2024-03-23T02:33:19;5.65;82.86
78902;DHT22;70441;44.758;37.686;2024-03-23T02:34:20;5.66;82.74
78902;DHT22;70441;44.758;37.686;2024-03-23T02:35:22;5.65;82.64
78902;DHT22;70441;44.758;37.686;2024-03-23T02:36:23;5.66;82.61
78902;DHT22;70441;44.758;37.686;2024-03-23T02:37:25;5.66;82.37
78902;DHT22;70441;44.758;37.686;2024-03-23T02:38:27;5.66;82.33
78902;DHT22;70441;44.758;37.686;2024-03-23T02:39:29;5.66;82.30
78902;DHT22;70441;44.758;37.686;2024-03-23T02:40:31;5.69;82.20
78902;DHT22;70441;44.758;37.686;2024-03-23T02:41:32;5.74;82.20
78902;DHT22;70441;44.758;37.686;2024-03-23T02:42:34;5.74;82.15
78902;DHT22;70441;44.758;37.686;2024-03-23T02:43:35;5.73;82.15
78902;DHT22;70441;44.758;37.686;2024-03-23T02:44:37;5.73;82.09
78902;DHT22;70441;44.758;37.686;2024-03-23T02:45:39;5.77;82.17
78902;DHT22;70441;44.758;37.686;2024-03-23T02:46:40;5.79;82.12
78902;DHT22;70441;44.758;37.686;2024-03-23T02:47:42;5.77;82.01
78902;DHT22;70441;44.758;37.686;2024-03-23T02:48:44;5.80;81.93
78902;DHT22;70441;44.758;37.686;2024-03-23T02:49:46;5.80;82.03
78902;DHT22;70441;44.758;37.686;2024-03-23T02:50:47;5.80;82.07
78902;DHT22;70441;44.758;37.686;2024-03-23T02:51:49;5.80;81.94
78902;DHT22;70441;44.758;37.686;2024-03-23T02:52:52;5.79;82.07
78902;DHT22;70441;44.758;37.686;2024-03-23T02:53:53;5.81;82.07
78902;DHT22;70441;44.758;37.686;2024-03-23T02:54:55;5.81;82.05
78902;DHT22;70441;44.758;37.686;2024-03-23T02:55:59;5.81;81.92
78902;DHT22;70441;44.758;37.686;2024-03-23T02:57:01;5.80;81.98
78902;DHT22;70441;44.758;37.686;2024-03-23T02:58:03;5.76;81.99
78902;DHT22;70441;44.758;37.686;2024-03-23T02:59:04;5.77;82.16
78902;DHT22;70441;44.758;37.686;2024-03-23T03:00:06;5.79;82.13
78902;DHT22;70441;44.758;37.686;2024-03-23T03:01:08;5.79;82.18
78902;DHT22;70441;44.758;37.686;2024-03-23T03:02:11;5.79;82.34
78902;DHT22;70441;44.758;37.686;2024-03-23T03:03:13;5.77;82.44
78902;DHT22;70441;44.758;37.686;2024-03-23T03:04:15;5.77;82.28
78902;DHT22;70441;44.758;37.686;2024-03-23T03:05:16;5.77;82.43
78902;DHT22;70441;44.758;37.686;2024-03-23T03:06:25;5.76;82.54
78902;DHT22;70441;44.758;37.686;2024-03-23T03:07:26;5.77;82.61
78902;DHT22;70441;44.758;37.686;2024-03-23T03:08:28;5.77;82.65
78902;DHT22;70441;44.758;37.686;2024-03-23T03:09:30;5.80;82.70
78902;DHT22;70441;44.758;37.686;2024-03-23T03:10:31;5.80;82.64
78902;DHT22;70441;44.758;37.686;2024-03-23T03:11:36;5.77;82.55
78902;DHT22;70441;44.758;37.686;2024-03-23T03:12:37;5.79;82.60
78902;DHT22;70441;44.758;37.686;2024-03-23T03:13:39;5.79;82.52
78902;DHT22;70441;44.758;37.686;2024-03-23T03:14:41;5.76;82.49
78902;DHT22;70441;44.758;37.686;2024-03-23T03:15:43;5.77;82.50
78902;DHT22;70441;44.758;37.686;2024-03-23T03:16:45;5.76;82.52
78902;DHT22;70441;44.758;37.686;2024-03-23T03:17:47;5.76;82.56
78902;DHT22;70441;44.758;37.686;2024-03-23T03:18:48;5.77;82.60
78902;DHT22;70441;44.758;37.686;2024-03-23T03:19:50;5.77;82.54
78902;DHT22;70441;44.758;37.686;2024-03-23T03:20:56;5.74;82.57
78902;DHT22;70441;44.758;37.686;2024-03-23T03:21:58;5.74;82.52
78902;DHT22;70441;44.758;37.686;2024-03-23T03:23:00;5.77;82.56
78902;DHT22;70441;44.758;37.686;2024-03-23T03:24:02;5.74;82.46
78902;DHT22;70441;44.758;37.686;2024-03-23T03:25:04;5.73;82.43
78902;DHT22;70441;44.758;37.686;2024-03-23T03:26:07;5.74;82.46
78902;DHT22;70441;44.758;37.686;2024-03-23T03:27:09;5.77;82.40
78902;DHT22;70441;44.758;37.686;2024-03-23T03:28:11;5.76;82.45
78902;DHT22;70441;44.758;37.686;2024-03-23T03:29:12;5.76;82.49
78902;DHT22;70441;44.758;37.686;2024-03-23T03:30:14;5.79;82.45
78902;DHT22;70441;44.758;37.686;2024-03-23T03:31:16;5.80;82.36
78902;DHT22;70441;44.758;37.686;2024-03-23T03:32:18;5.81;82.38
78902;DHT22;70441;44.758;37.686;2024-03-23T03:33:20;5.81;82.32
78902;DHT22;70441;44.758;37.686;2024-03-23T03:34:21;5.85;82.35
78902;DHT22;70441;44.758;37.686;2024-03-23T03:35:23;5.87;82.33
78902;DHT22;70441;44.758;37.686;2024-03-23T03:36:25;5.90;82.25
78902;DHT22;70441;44.758;37.686;2024-03-23T03:37:27;5.90;82.20
78902;DHT22;70441;44.758;37.686;2024-03-23T03:38:28;5.94;82.17
78902;DHT22;70441;44.758;37.686;2024-03-23T03:39:30;5.94;82.11
78902;DHT22;70441;44.758;37.686;2024-03-23T03:40:32;5.94;82.09
78902;DHT22;70441;44.758;37.686;2024-03-23T03:41:33;5.94;82.10
78902;DHT22;70441;44.758;37.686;2024-03-23T03:42:35;5.93;82.08
78902;DHT22;70441;44.758;37.686;2024-03-23T03:43:36;5.96;82.15
78902;DHT22;70441;44.758;37.686;2024-03-23T03:44:39;5.96;82.09
78902;DHT22;70441;44.758;37.686;2024-03-23T03:45:41;5.96;82.11
78902;DHT22;70441;44.758;37.686;2024-03-23T03:46:43;5.96;82.32
78902;DHT22;70441;44.758;37.686;2024-03-23T03:47:44;6.00;82.51
78902;DHT22;70441;44.758;37.686;2024-03-23T03:48:46;5.98;82.42
78902;DHT22;70441;44.758;37.686;2024-03-23T03:49:49;6.00;82.44
78902;DHT22;70441;44.758;37.686;2024-03-23T03:50:52;5.96;82.58
78902;DHT22;70441;44.758;37.686;2024-03-23T03:51:54;6.00;82.59
78902;DHT22;70441;44.758;37.686;2024-03-23T03:52:56;6.04;82.54
78902;DHT22;70441;44.758;37.686;2024-03-23T03:54:05;6.03;82.54
78902;DHT22;70441;44.758;37.686;2024-03-23T03:55:32;6.05;82.54
78902;DHT22;70441;44.758;37.686;2024-03-23T03:56:34;6.05;82.51
78902;DHT22;70441;44.758;37.686;2024-03-23T03:57:35;6.04;82.50
78902;DHT22;70441;44.758;37.686;2024-03-23T03:58:37;6.01;82.47
78902;DHT22;70441;44.758;37.686;2024-03-23T03:59:39;5.98;82.60
78902;DHT22;70441;44.758;37.686;2024-03-23T04:00:40;5.97;82.66
78902;DHT22;70441;44.758;37.686;2024-03-23T04:01:42;5.97;82.80
78902;DHT22;70441;44.758;37.686;2024-03-23T04:02:44;6.00;82.88
78902;DHT22;70441;44.758;37.686;2024-03-23T04:03:45;6.00;82.91
78902;DHT22;70441;44.758;37.686;2024-03-23T04:04:47;6.01;82.88
78902;DHT22;70441;44.758;37.686;2024-03-23T04:05:52;6.00;82.89
78902;DHT22;70441;44.758;37.686;2024-03-23T04:07:00;6.03;82.79
78902;DHT22;70441;44.758;37.686;2024-03-23T04:08:02;6.01;82.86
78902;DHT22;70441;44.758;37.686;2024-03-23T04:09:04;6.04;83.02
78902;DHT22;70441;44.758;37.686;2024-03-23T04:10:06;6.07;83.03
78902;DHT22;70441;44.758;37.686;2024-03-23T04:11:09;6.10;83.10
78902;DHT22;70441;44.758;37.686;2024-03-23T04:12:11;6.11;83.01
78902;DHT22;70441;44.758;37.686;2024-03-23T04:13:13;6.14;83.00
78902;DHT22;70441;44.758;37.686;2024-03-23T04:14:15;6.14;83.00
78902;DHT22;70441;44.758;37.686;2024-03-23T04:15:16;6.15;82.53
78902;DHT22;70441;44.758;37.686;2024-03-23T04:16:28;6.10;82.67
78902;DHT22;70441;44.758;37.686;2024-03-23T04:17:31;6.15;82.84
78902;DHT22;70441;44.758;37.686;2024-03-23T04:18:35;6.15;82.59
78902;DHT22;70441;44.758;37.686;2024-03-23T04:19:36;6.14;82.69
78902;DHT22;70441;44.758;37.686;2024-03-23T04:20:38;6.17;82.83
78902;DHT22;70441;44.758;37.686;2024-03-23T04:21:57;6.20;82.80
78902;DHT22;70441;44.758;37.686;2024-03-23T04:22:59;6.24;82.82
78902;DHT22;70441;44.758;37.686;2024-03-23T04:24:01;6.24;82.71
78902;DHT22;70441;44.758;37.686;2024-03-23T04:25:03;6.26;82.46
78902;DHT22;70441;44.758;37.686;2024-03-23T04:26:07;6.21;82.14
78902;DHT22;70441;44.758;37.686;2024-03-23T04:27:09;6.18;82.39
78902;DHT22;70441;44.758;37.686;2024-03-23T04:28:11;6.21;82.66
78902;DHT22;70441;44.758;37.686;2024-03-23T04:29:12;6.22;82.59
78902;DHT22;70441;44.758;37.686;2024-03-23T04:30:14;6.22;82.53
78902;DHT22;70441;44.758;37.686;2024-03-23T04:31:16;6.21;82.32
78902;DHT22;70441;44.758;37.686;2024-03-23T04:32:18;6.24;82.27
78902;DHT22;70441;44.758;37.686;2024-03-23T04:33:20;6.20;81.78
78902;DHT22;70441;44.758;37.686;2024-03-23T04:34:22;6.15;82.15
78902;DHT22;70441;44.758;37.686;2024-03-23T04:35:24;6.17;82.64
78902;DHT22;70441;44.758;37.686;2024-03-23T04:36:28;6.15;82.71
78902;DHT22;70441;44.758;37.686;2024-03-23T04:37:30;6.22;82.53
78902;DHT22;70441;44.758;37.686;2024-03-23T04:38:31;6.21;82.64
78902;DHT22;70441;44.758;37.686;2024-03-23T04:39:33;6.24;82.35
78902;DHT22;70441;44.758;37.686;2024-03-23T04:40:35;6.26;82.66
78902;DHT22;70441;44.758;37.686;2024-03-23T04:41:36;6.28;82.41
78902;DHT22;70441;44.758;37.686;2024-03-23T04:42:38;6.32;82.41
78902;DHT22;70441;44.758;37.686;2024-03-23T04:43:39;6.36;82.50
78902;DHT22;70441;44.758;37.686;2024-03-23T04:44:41;6.40;82.42
78902;DHT22;70441;44.758;37.686;2024-03-23T04:45:43;6.45;82.22
78902;DHT22;70441;44.758;37.686;2024-03-23T04:46:45;6.40;81.50
78902;DHT22;70441;44.758;37.686;2024-03-23T04:47:48;6.42;81.37
78902;DHT22;70441;44.758;37.686;2024-03-23T04:48:50;6.42;81.42
78902;DHT22;70441;44.758;37.686;2024-03-23T04:49:53;6.45;81.40
78902;DHT22;70441;44.758;37.686;2024-03-23T04:50:55;6.45;81.53
78902;DHT22;70441;44.758;37.686;2024-03-23T04:51:58;6.46;81.54
78902;DHT22;70441;44.758;37.686;2024-03-23T04:53:00;6.48;81.51
78902;DHT22;70441;44.758;37.686;2024-03-23T04:54:02;6.50;81.50
78902;DHT22;70441;44.758;37.686;2024-03-23T04:55:06;6.52;81.48
78902;DHT22;70441;44.758;37.686;2024-03-23T04:56:09;6.52;81.40
78902;DHT22;70441;44.758;37.686;2024-03-23T04:57:11;6.54;81.30
78902;DHT22;70441;44.758;37.686;2024-03-23T04:58:13;6.57;81.33
78902;DHT22;70441;44.758;37.686;2024-03-23T04:59:14;6.54;81.27
78902;DHT22;70441;44.758;37.686;2024-03-23T05:00:16;6.56;81.32
78902;DHT22;70441;44.758;37.686;2024-03-23T05:01:18;6.59;81.48
78902;DHT22;70441;44.758;37.686;2024-03-23T05:02:20;6.63;81.56
78902;DHT22;70441;44.758;37.686;2024-03-23T05:03:23;6.64;81.33
78902;DHT22;70441;44.758;37.686;2024-03-23T05:04:26;6.67;81.27
78902;DHT22;70441;44.758;37.686;2024-03-23T05:05:27;6.69;81.19
78902;DHT22;70441;44.758;37.686;2024-03-23T05:06:29;6.70;81.04
78902;DHT22;70441;44.758;37.686;2024-03-23T05:07:31;6.74;80.70
78902;DHT22;70441;44.758;37.686;2024-03-23T05:08:33;6.72;80.63
78902;DHT22;70441;44.758;37.686;2024-03-23T05:09:35;6.73;80.64
78902;DHT22;70441;44.758;37.686;2024-03-23T05:10:36;6.77;80.72
78902;DHT22;70441;44.758;37.686;2024-03-23T05:11:38;6.77;80.50
78902;DHT22;70441;44.758;37.686;2024-03-23T05:12:40;6.76;80.24
78902;DHT22;70441;44.758;37.686;2024-03-23T05:13:43;6.76;80.46
78902;DHT22;70441;44.758;37.686;2024-03-23T05:14:46;6.80;80.33
78902;DHT22;70441;44.758;37.686;2024-03-23T05:15:52;6.81;80.30
78902;DHT22;70441;44.758;37.686;2024-03-23T05:16:54;6.84;80.46
78902;DHT22;70441;44.758;37.686;2024-03-23T05:17:57;6.76;79.70
78902;DHT22;70441;44.758;37.686;2024-03-23T05:18:59;6.69;80.03
78902;DHT22;70441;44.758;37.686;2024-03-23T05:20:01;6.63;80.37
78902;DHT22;70441;44.758;37.686;2024-03-23T05:21:04;6.63;80.73
78902;DHT22;70441;44.758;37.686;2024-03-23T05:22:06;6.54;80.78
78902;DHT22;70441;44.758;37.686;2024-03-23T05:23:07;6.45;80.63
78902;DHT22;70441;44.758;37.686;2024-03-23T05:24:09;6.39;80.59
78902;DHT22;70441;44.758;37.686;2024-03-23T05:25:11;6.31;80.97
78902;DHT22;70441;44.758;37.686;2024-03-23T05:26:13;6.26;81.14
78902;DHT22;70441;44.758;37.686;2024-03-23T05:27:15;6.24;81.42
78902;DHT22;70441;44.758;37.686;2024-03-23T05:28:16;6.18;81.87
78902;DHT22;70441;44.758;37.686;2024-03-23T05:29:18;6.15;81.98
78902;DHT22;70441;44.758;37.686;2024-03-23T05:30:20;6.14;82.03
78902;DHT22;70441;44.758;37.686;2024-03-23T05:31:26;6.14;82.10
78902;DHT22;70441;44.758;37.686;2024-03-23T05:32:27;6.13;82.24
78902;DHT22;70441;44.758;37.686;2024-03-23T05:33:29;6.14;82.19
78902;DHT22;70441;44.758;37.686;2024-03-23T05:34:30;6.14;82.47
78902;DHT22;70441;44.758;37.686;2024-03-23T05:35:32;6.17;82.57
78902;DHT22;70441;44.758;37.686;2024-03-23T05:36:34;6.18;82.64
78902;DHT22;70441;44.758;37.686;2024-03-23T05:37:36;6.24;82.55
78902;DHT22;70441;44.758;37.686;2024-03-23T05:38:38;6.25;82.51
78902;DHT22;70441;44.758;37.686;2024-03-23T05:39:41;6.29;82.43
78902;DHT22;70441;44.758;37.686;2024-03-23T05:40:55;6.25;81.99
78902;DHT22;70441;44.758;37.686;2024-03-23T05:41:57;6.25;82.26
78902;DHT22;70441;44.758;37.686;2024-03-23T05:42:59;6.28;82.53
78902;DHT22;70441;44.758;37.686;2024-03-23T05:44:00;6.31;82.46
78902;DHT22;70441;44.758;37.686;2024-03-23T05:45:03;6.32;82.33
78902;DHT22;70441;44.758;37.686;2024-03-23T05:46:08;6.38;82.67
78902;DHT22;70441;44.758;37.686;2024-03-23T05:47:10;6.43;82.48
78902;DHT22;70441;44.758;37.686;2024-03-23T05:48:12;6.46;82.36
78902;DHT22;70441;44.758;37.686;2024-03-23T05:49:15;6.50;82.19
78902;DHT22;70441;44.758;37.686;2024-03-23T05:50:18;6.49;82.23
78902;DHT22;70441;44.758;37.686;2024-03-23T05:51:19;6.54;82.13
78902;DHT22;70441;44.758;37.686;2024-03-23T05:52:21;6.57;81.90
78902;DHT22;70441;44.758;37.686;2024-03-23T05:53:24;6.62;81.79
78902;DHT22;70441;44.758;37.686;2024-03-23T05:54:25;6.66;82.00
78902;DHT22;70441;44.758;37.686;2024-03-23T05:55:27;6.63;81.55
78902;DHT22;70441;44.758;37.686;2024-03-23T05:56:29;6.64;81.86
78902;DHT22;70441;44.758;37.686;2024-03-23T05:57:31;6.70;81.88
78902;DHT22;70441;44.758;37.686;2024-03-23T05:58:33;6.73;81.87
78902;DHT22;70441;44.758;37.686;2024-03-23T05:59:35;6.80;81.63
78902;DHT22;70441;44.758;37.686;2024-03-23T06:00:37;6.85;81.47
78902;DHT22;70441;44.758;37.686;2024-03-23T06:01:38;6.90;81.23
78902;DHT22;70441;44.758;37.686;2024-03-23T06:02:40;6.97;81.12
78902;DHT22;70441;44.758;37.686;2024-03-23T06:03:42;6.99;80.77
78902;DHT22;70441;44.758;37.686;2024-03-23T06:04:45;7.07;80.67
78902;DHT22;70441;44.758;37.686;2024-03-23T06:05:47;7.15;80.83
78902;DHT22;70441;44.758;37.686;2024-03-23T06:06:48;7.22;80.67
78902;DHT22;70441;44.758;37.686;2024-03-23T06:07:50;7.26;80.59
78902;DHT22;70441;44.758;37.686;2024-03-23T06:08:52;7.32;80.52
78902;DHT22;70441;44.758;37.686;2024-03-23T06:09:53;7.42;80.51
78902;DHT22;70441;44.758;37.686;2024-03-23T06:10:55;7.37;79.76
78902;DHT22;70441;44.758;37.686;2024-03-23T06:11:57;7.42;80.07
78902;DHT22;70441;44.758;37.686;2024-03-23T06:12:59;7.54;80.87
78902;DHT22;70441;44.758;37.686;2024-03-23T06:14:01;7.63;80.60
78902;DHT22;70441;44.758;37.686;2024-03-23T06:15:02;7.70;79.67
78902;DHT22;70441;44.758;37.686;2024-03-23T06:16:04;7.71;79.10
78902;DHT22;70441;44.758;37.686;2024-03-23T06:17:07;7.81;78.82
78902;DHT22;70441;44.758;37.686;2024-03-23T06:18:09;7.85;78.38
78902;DHT22;70441;44.758;37.686;2024-03-23T06:19:11;7.91;78.27
78902;DHT22;70441;44.758;37.686;2024-03-23T06:20:13;7.99;78.33
78902;DHT22;70441;44.758;37.686;2024-03-23T06:21:14;8.03;78.15
78902;DHT22;70441;44.758;37.686;2024-03-23T06:22:16;8.09;77.90
78902;DHT22;70441;44.758;37.686;2024-03-23T06:23:18;8.17;77.32
78902;DHT22;70441;44.758;37.686;2024-03-23T06:24:24;8.29;77.33
78902;DHT22;70441;44.758;37.686;2024-03-23T06:25:26;8.38;77.18
78902;DHT22;70441;44.758;37.686;2024-03-23T06:26:27;8.41;76.40
78902;DHT22;70441;44.758;37.686;2024-03-23T06:27:29;8.51;76.89
78902;DHT22;70441;44.758;37.686;2024-03-23T06:28:31;8.64;77.08
78902;DHT22;70441;44.758;37.686;2024-03-23T06:29:32;8.76;76.74
78902;DHT22;70441;44.758;37.686;2024-03-23T06:30:34;8.86;75.73
78902;DHT22;70441;44.758;37.686;2024-03-23T06:31:36;8.97;75.68
78902;DHT22;70441;44.758;37.686;2024-03-23T06:32:37;9.07;75.30
78902;DHT22;70441;44.758;37.686;2024-03-23T06:33:39;9.17;74.48
78902;DHT22;70441;44.758;37.686;2024-03-23T06:34:44;9.26;74.31
78902;DHT22;70441;44.758;37.686;2024-03-23T06:35:53;9.37;74.15
78902;DHT22;70441;44.758;37.686;2024-03-23T06:36:54;9.48;73.95
78902;DHT22;70441;44.758;37.686;2024-03-23T06:37:56;9.55;74.10
78902;DHT22;70441;44.758;37.686;2024-03-23T06:38:59;9.59;73.53
78902;DHT22;70441;44.758;37.686;2024-03-23T06:40:02;9.58;73.48
78902;DHT22;70441;44.758;37.686;2024-03-23T06:41:06;9.55;72.07
78902;DHT22;70441;44.758;37.686;2024-03-23T06:42:08;9.51;71.58
78902;DHT22;70441;44.758;37.686;2024-03-23T06:43:09;9.52;71.97
78902;DHT22;70441;44.758;37.686;2024-03-23T06:44:12;9.48;71.63
78902;DHT22;70441;44.758;37.686;2024-03-23T06:45:14;9.51;71.27
78902;DHT22;70441;44.758;37.686;2024-03-23T06:46:16;9.45;72.49
78902;DHT22;70441;44.758;37.686;2024-03-23T06:47:17;9.45;71.97
78902;DHT22;70441;44.758;37.686;2024-03-23T06:48:20;9.48;71.74
78902;DHT22;70441;44.758;37.686;2024-03-23T06:49:24;9.46;71.92
78902;DHT22;70441;44.758;37.686;2024-03-23T06:50:26;9.46;71.27
78902;DHT22;70441;44.758;37.686;2024-03-23T06:51:29;9.58;72.65
78902;DHT22;70441;44.758;37.686;2024-03-23T06:52:31;9.66;72.29
78902;DHT22;70441;44.758;37.686;2024-03-23T06:53:32;9.72;72.09
78902;DHT22;70441;44.758;37.686;2024-03-23T06:54:34;9.79;72.01
78902;DHT22;70441;44.758;37.686;2024-03-23T06:55:37;9.86;72.02
78902;DHT22;70441;44.758;37.686;2024-03-23T06:56:38;9.87;70.95
78902;DHT22;70441;44.758;37.686;2024-03-23T06:57:40;9.87;70.81
78902;DHT22;70441;44.758;37.686;2024-03-23T06:58:42;9.94;71.46
78902;DHT22;70441;44.758;37.686;2024-03-23T06:59:43;9.94;70.87
78902;DHT22;70441;44.758;37.686;2024-03-23T07:00:45;9.94;71.45
78902;DHT22;70441;44.758;37.686;2024-03-23T07:01:47;10.00;70.84
78902;DHT22;70441;44.758;37.686;2024-03-23T07:02:48;10.03;70.21
78902;DHT22;70441;44.758;37.686;2024-03-23T07:03:50;10.08;69.81
78902;DHT22;70441;44.758;37.686;2024-03-23T07:04:52;10.12;70.26
78902;DHT22;70441;44.758;37.686;2024-03-23T07:05:58;10.17;69.66
78902;DHT22;70441;44.758;37.686;2024-03-23T07:06:59;10.18;69.00
78902;DHT22;70441;44.758;37.686;2024-03-23T07:08:02;10.22;69.17
78902;DHT22;70441;44.758;37.686;2024-03-23T07:09:04;10.32;70.23
78902;DHT22;70441;44.758;37.686;2024-03-23T07:10:06;10.41;69.55
78902;DHT22;70441;44.758;37.686;2024-03-23T07:11:08;10.45;69.44
78902;DHT22;70441;44.758;37.686;2024-03-23T07:12:10;10.53;69.82
78902;DHT22;70441;44.758;37.686;2024-03-23T07:13:11;10.64;69.76
78902;DHT22;70441;44.758;37.686;2024-03-23T07:14:13;10.70;69.39
78902;DHT22;70441;44.758;37.686;2024-03-23T07:15:15;10.77;70.02
78902;DHT22;70441;44.758;37.686;2024-03-23T07:16:17;10.90;69.16
78902;DHT22;70441;44.758;37.686;2024-03-23T07:17:19;10.93;68.85
78902;DHT22;70441;44.758;37.686;2024-03-23T07:18:21;10.98;68.31
78902;DHT22;70441;44.758;37.686;2024-03-23T07:19:22;11.04;68.45
78902;DHT22;70441;44.758;37.686;2024-03-23T07:20:26;11.19;68.23
78902;DHT22;70441;44.758;37.686;2024-03-23T07:21:28;11.25;68.31
78902;DHT22;70441;44.758;37.686;2024-03-23T07:22:30;11.35;67.46
78902;DHT22;70441;44.758;37.686;2024-03-23T07:23:33;11.44;68.30
78902;DHT22;70441;44.758;37.686;2024-03-23T07:24:35;11.47;65.90